Woo Kwan Lee & Lo 胡關李羅律師行

start date:
end date:
include new appointments after start date

Role: Lawyer

This is a continuing role. Total returns are measured from the latest of the start date, the appointment date and 3-Jan-1994 until the earliest of the end date, the resignation/removal date and the last trading date. CAGR is the annualised return and is not shown for periods under 180 days. Relative returns are to the Tracker Fund of HK (2800), starting from the latest of 12-Nov-1999, the appointment date and the chosen start date.

Some data are hidden to fit your display. Rotate?

Client Added Removed Total
return
CAGR
total
return
CAGR
relative
return
1 CHINA OVERSEAS GRAND OCEANS GROUP LIMITED 2010-04-12 262.50% 8.24% 20.76%
2 CHINA STRATEGIC HOLDINGS LIMITED 1992-04-27
3 CITIC Limited 1992-04-15
4 CK Hutchison Holdings Limited 2016-03-17 579.10% 9.01% 2.66%
5 CONTINENTAL HOLDINGS LIMITED 1992-12-01
6 COSMOS MACHINERY ENTERPRISES LIMITED 2017-03-16 -51.54% -3.07% -3.90%
7 CROCODILE GARMENTS LIMITED 1991-11-07
8 CWT International Limited 1991-04-13
9 ELEC & ELTEK INTERNATIONAL HOLDINGS LIMITED 2005-03-21 488.40% 17.47% 11.77%
10 FAR EAST CONSORTIUM INTERNATIONAL LIMITED 355.69% 6.06% 6.60%
11 FAR EAST HOLDINGS INTERNATIONAL LIMITED 2011-03-30 -83.33% -10.19% -8.98%
12 FAR EAST HOTELS AND ENTERTAINMENT LIMITED -91.17% -8.98% -12.25%
13 FOUNTAIN SET (HOLDINGS) LIMITED 1996-01-16 8.33% 4.01%
14 GENERAL ELECTRONICS LIMITED (c1999-02-28) 1995-12-08 -44.41% -26.49%
15 GRAND HOTEL HOLDINGS LIMITED 1991-09-27
16 HANG LUNG GROUP LIMITED 1991-09-27
17 HANG LUNG PROPERTIES LIMITED 1991-09-27
18 HENDERSON INVESTMENT LIMITED 1,253.35% 10.63% 8.89%
19 HENDERSON LAND DEVELOPMENT COMPANY LIMITED 197.66% 4.32% -0.42%
20 HKR INTERNATIONAL LIMITED 2001-06-22 -31.68% -4.97% -23.68%
21 HOPEWELL HOLDINGS LIMITED 2019-05-03 176.18% 4.10% 9.96%
22 KWONG SANG HONG INTERNATIONAL LIMITED (THE) 1999-03-04 -83.47% -29.43%
23 LAI SUN DEVELOPMENT COMPANY LIMITED 2000-11-20 -96.31% -38.10% -46.94%
24 LAI SUN GARMENT (INTERNATIONAL) LIMITED 1991-11-07
25 LEE HING DEVELOPMENT LIMITED 2004-04-22 -46.98% -5.97% -0.35%
26 MELBOURNE ENTERPRISES LIMITED 901.80% 9.35% 7.09%
27 MELCO INTERNATIONAL DEVELOPMENT LIMITED 2003-04-02 -52.29% -7.69% 29.37%
28 NOVEL ENTERPRISES LIMITED 1995-01-25 20.54% 19.79%
29 ORIENTAL PRESS GROUP LIMITED 2000-06-19 -75.05% -19.34% 28.14%
30 PEREGRINE INVESTMENTS HOLDINGS LIMITED 1999-07-13 -74.70% -29.01%
31 S E A HOLDINGS LIMITED 1994-05-07 -5.04%
32 SANYUAN GROUP LIMITED 1991-08-13
33 SINO LAND COMPANY LIMITED 175.88% 4.01% 2.81%
34 South China Holdings Company Limited 1992-03-26
35 SUN HUNG KAI & CO. LIMITED 2007-04-11 110.38% 5.77% 23.57%
36 SUN HUNG KAI PROPERTIES LIMITED 244.95% 4.92% -0.78%
37 TAI SANG LAND DEVELOPMENT LIMITED 204.53% 4.41% 2.82%
38 TERN PROPERTIES COMPANY LIMITED 163.47% 3.83% 0.54%
39 TSIM SHA TSUI PROPERTIES LIMITED 304.82% 5.57% 3.13%
40 Yunfeng Financial Group Limited 2003-06-13 -87.09% -19.50% -17.64%
41 NEW WORLD DEVELOPMENT COMPANY LIMITED 1980-11-26 -18.49% -0.79% -3.36%
42 DAISHO MICROLINE HOLDINGS LIMITED 1990-01-15 2018-06-12 -36.94% -1.87% -7.63%
43 GOLDWIZ HOLDINGS LIMITED 1990-06-25 1999-08-24 -79.58% -24.56%
44 CHTC Fong's International Company Limited 1990-09-25 2006-04-13 1,067.08% 22.16% 69.17%
45 SHK Hong Kong Industries Limited 1990-12-06 2010-03-26 59.82% 2.93% -5.24%
46 GOLDEN RESOURCES DEVELOPMENT INTERNATIONAL LIMITED 1991-01-11 2007-07-11 54.89% 3.29% 16.13%
47 MEDIA CHINESE INTERNATIONAL LIMITED 1991-03-01 1992-07-09
48 SHOUGANG CONCORD INTERNATIONAL ENTERPRISES COMPANY LIMITED 1991-04-16 1992-05-12
49 BOE Varitronix Limited 1991-06-11 2005-04-18 17.54% 1.44% -10.79%
50 AUTO ITALIA HOLDINGS LIMITED 1991-06-28 2014-03-25 -99.18% -21.13% -13.85%
51 China Medical & HealthCare Group Limited 1991-07-16 1997-05-07 -39.27% -13.87%
52 Hop Hing Group Holdings Limited 1991-08-22 2005-04-28 -66.67% -9.25% -10.60%
53 Peking University Resources (Holdings) Company Limited 1991-09-17 1992-04-06
54 KING PACIFIC INTERNATIONAL HOLDINGS LIMITED 1991-10-04 2001-01-30 -93.03% -32.28% -87.31%
55 TERMBRAY INDUSTRIES INTERNATIONAL (HOLDINGS) LIMITED 1991-10-08 1992-07-17
56 AVIC International Holding (HK) Limited 1991-11-26 2003-03-28 -62.19% -10.00% -4.71%
57 PAK FAH YEOW INTERNATIONAL LIMITED 1991-12-03 2,847.82% 14.02% 8.30%
58 COSCO SHIPPING International (Hong Kong) Co., Ltd. 1992-01-21 2014-03-20 533.75% 9.57% 4.04%
59 KuangChi Science Limited 1992-02-25 1994-07-25 -27.93% -44.52%
60 Lerthai Group Limited 1992-03-18 1994-03-29 -12.43%
61 CSI Properties Limited (BM) 1992-03-30 2000-08-17 -47.44% -9.26% -19.30%
62 GUANGDONG INVESTMENT LIMITED 1992-05-29 1994-04-27 -26.67%
63 GOLDLION HOLDINGS LIMITED 1992-09-02 168.34% 3.90% 5.63%
64 CHINA STAR ENTERTAINMENT LIMITED 1992-10-27 1997-04-21 190.96% 38.26%
65 CHINA TRAVEL INTERNATIONAL INVESTMENT HONG KONG LIMITED 1992-10-27 1993-04-29
66 LE SAUNDA HOLDINGS LIMITED 1992-11-26 1993-06-22
67 DENWAY MOTORS LIMITED 1993-02-05 2010-08-26 506.37% 11.46% 19.15%
68 LUNG KEE (BERMUDA) HOLDINGS LIMITED 1993-02-16 1,615.93% 11.65% 6.92%
69 CHINA TRADITIONAL CHINESE MEDICINE HOLDINGS CO. LIMITED 1993-03-19 1993-05-20
70 Huajun International Group Limited 1993-03-30 2011-06-29 633.82% 12.07% 20.95%
71 RYODEN DEVELOPMENT LIMITED 1993-03-31 2002-11-20 -70.57% -12.90% 26.38%
72 Silver Grant International Holdings Group Limited 1993-05-07 2003-04-24 24.10% 2.35% 4.32%
73 KONG SUN HOLDINGS LIMITED 1993-05-31 1994-05-17 -42.65%
74 PACIFIC CONCORD HOLDING LIMITED 1993-05-31 1998-04-14 -63.98% -21.24%
75 Beijing Jingcheng Machinery Electric Company Limited 1993-07-23 -56.49% -3.18% -1.61%
76 STONE GROUP HOLDINGS LIMITED 1993-07-30 2004-04-26 -80.13% -14.51% -22.86%
77 SAFETY GODOWN COMPANY, LIMITED 1993-07-31 460.55% 6.91% 4.92%
78 China Foods Limited 1993-08-10 2001-04-06 -45.92% -8.12% 19.42%
79 CHINA EVERBRIGHT INTERNATIONAL LIMITED 1993-09-02 2010-03-10 208.33% 7.21% 10.89%
80 PYI Corporation Limited 1993-09-07 1995-08-18 -3.01% -1.87%
81 LEADING SPIRIT HIGH-TECH (HOLDINGS) COMPANY LIMITED 1993-09-29 1995-10-10 12.53% 6.92%
82 SIU-FUNG CERAMICS HOLDINGS LIMITED 1993-10-12 1994-07-08 -45.26% -69.38%
83 TeaM Energy Asia-Pacific Limited 1993-11-24 1997-01-30 38.97% 11.51%
84 THEME INTERNATIONAL HOLDINGS LIMITED 1994-01-10 1994-08-15 -34.04% -52.88%
85 China Environmental Energy Investment Limited 1994-01-19 1995-07-27 15.14% 10.00%
86 LENOVO GROUP LIMITED 1994-01-25 2001-06-27 1,070.98% 39.67% 44.73%
87 Sinopec Oilfield Service Corporation 1994-03-14 2015-03-24 165.51% 4.76% -0.70%
88 Celestial Asia Securities Holdings Limited 1994-04-12 1999-03-31 -85.61% -32.54%
89 TIAN AN CHINA INVESTMENTS COMPANY LIMITED 1994-04-19 1997-04-21 -51.05% -21.15%
90 HKC (HOLDINGS) LIMITED 1994-05-23 2000-05-22 -74.49% -20.37% -71.68%
91 CSPC PHARMACEUTICAL GROUP LIMITED 1994-06-02 2016-03-21 1,018.46% 11.74% 5.96%
92 QINGLING MOTORS CO. LTD 1994-07-29 128.93% 3.35% 0.64%
93 TOP GLORY INTERNATIONAL HOLDINGS LIMITED 1994-09-01 2001-04-06 -49.87% -9.94% -7.77%
94 HUTCHISON GLOBAL COMMUNICATIONS HOLDINGS LIMITED 1995-03-29 1998-08-25 -54.46% -20.91%
95 CCT Fortis Holdings Limited 1995-05-01 1997-05-19 55.14% 23.88%
96 FUJIAN HOLDINGS LIMITED 1995-08-02 1996-07-02 183.53% 211.51%
97 TERMBRAY INDUSTRIES INTERNATIONAL (HOLDINGS) LIMITED 1995-08-12 26.92% 0.99% -9.13%
98 GEELY AUTOMOBILE HOLDINGS LIMITED 1995-08-24 1997-04-24 -28.31% -18.09%
99 CHINA EVERBRIGHT LIMITED (HK) 1995-09-14 1996-08-22 -17.02% -18.02%
100 Tai United Holdings Limited 1995-09-19 1996-08-07 28.00% 33.76%
101 Brightoil Petroleum (Holdings) Limited 1995-11-03 1996-08-15 149.80% 240.36%
102 HENDERSON CHINA HOLDINGS LIMITED 1996-03-19 2005-08-15 -49.74% -7.08% 14.18%
103 FDG Kinetic Limited 1996-03-29 2009-04-27 -38.35% -3.63% -3.08%
104 AV CONCEPT HOLDINGS LIMITED 1996-04-10 1996-08-21 -19.27%
105 SHANGHAI INDUSTRIAL HOLDINGS LIMITED 1996-05-21 2007-04-20 192.51% 10.36% -1.73%
106 CK Infrastructure Holdings Limited 1996-07-04 879.81% 10.31% 4.26%
107 Kingston Financial Group Limited 1996-07-09 1999-07-26 -80.88% -42.32%
108 Hisense Home Appliances Group Co., Ltd. 1996-07-15 1997-02-28 122.05% 276.00%
109 Haitong International Securities Group Limited 1996-07-23 737.43% 9.59% 2.95%
110 ITC Properties Group Limited 1996-08-21 2001-07-20 -80.92% -28.63% -11.10%
111 Sinofert Holdings Limited 1996-09-17 2001-07-26 -81.68% -29.69% 44.92%
112 SHENZHEN INVESTMENT LIMITED 1997-02-21 2018-03-26 301.74% 6.83% 5.47%
113 Bel Global Resources Holdings Limited 1997-02-25 2000-08-24 -59.68% -23.05% 174.82%
114 SOUNDWILL HOLDINGS LIMITED 1997-03-10 2002-04-16 -97.98% -53.66% -29.48%
115 Chinese People Holdings Company Limited 1997-04-10 1997-08-25 -15.45%
116 Prosperity Investment Holdings Limited 1997-04-18 1998-04-21 -57.78% -57.50%
117 Beijing North Star Company Limited 1997-05-06 5.99% 0.26% 1.87%
118 SHUN HO HOLDINGS LIMITED 1997-05-15 2017-03-13 271.79% 6.85% 7.12%
119 SHUN HO PROPERTY INVESTMENTS LIMITED 1997-05-15 2017-03-13 233.20% 6.26% 7.43%
120 China Environmental Resources Group Limited 1997-05-20 1997-10-29 -67.92%
121 CHINA INVESTMENTS HOLDINGS LIMITED 1997-05-22 -68.79% -5.06% -3.75%
122 Jiangxi Copper Company Limited 1997-06-02 2002-04-11 -47.20% -12.39% 9.55%
123 CITIC RESOURCES HOLDINGS LIMITED 1997-08-26 1998-02-16 -71.62%
124 LAI FUNG HOLDINGS LIMITED 1997-11-18 2001-11-09 -94.13% -51.23% -44.05%
125 TIANJIN DEVELOPMENT HOLDINGS LIMITED 1997-12-02 -58.20% -3.91% -7.25%
126 Gemdale Properties and Investment Corporation Limited 1998-03-20 2003-03-12 -92.47% -40.52% -38.41%
127 COSCO SHIPPING Ports Limited 1998-03-26 140.23% 4.15% -2.29%
128 Tianda Pharmaceuticals Limited 1998-04-24 -87.29% -9.15% -12.04%
129 CHINA TRAVEL INTERNATIONAL INVESTMENT HONG KONG LIMITED 1998-05-20 2001-04-25 -27.19% -10.26% 0.78%
130 SINOLINK WORLDWIDE HOLDINGS LIMITED 1998-05-26 2018-03-15 364.88% 8.08% 4.76%
131 MAGNIFICENT HOTEL INVESTMENTS LIMITED 1998-08-11 2017-03-13 653.68% 11.48% 1.22%
132 FUJIAN HOLDINGS LIMITED 1998-08-14 2000-08-30 -87.24% -63.46% -21.57%
133 TongChuang Holdings Limited 1999-06-22 2007-02-28 9.99% 1.25% -0.34%
134 SIIC MEDICAL SCIENCE AND TECHNOLOGY (GROUP) LIMITED 1999-11-23 2003-09-17 -11.82% -3.28% 2.24%
135 SRE Group Limited 1999-11-30 2016-03-31 -16.16% -1.08% -5.57%
136 Shenzhou Space Park Group Limited 2000-01-06 2004-04-22 -80.85% -32.18% -30.94%
137 Beijing Capital International Airport Company Limited 2000-01-21 2003-04-09 3.77% 1.17% 17.64%
138 SUNEVISION HOLDINGS LTD. 2000-03-06 126.77% 4.27% -1.38%
139 Binhai Investment Company Limited 2000-03-07 -59.03% -4.45% -9.82%
140 PCCW LIMITED 2000-03-20 2000-05-26 -34.31%
141 CHINA EVERBRIGHT LIMITED (HK) 2000-03-29 2004-03-30 -30.48% -8.68% -3.50%
142 New City Development Group Limited 2000-04-13 2002-04-23 -55.74% -34.68% -29.20%
143 HENDERSON CYBER LIMITED 2000-07-04 2005-12-12 -66.26% -18.28% -18.74%
144 MIRABELL INTERNATIONAL HOLDINGS LIMITED 2000-07-13 2008-09-22 6,081.30% 68.99% 56.55%
145 Sino Vision Worldwide Holdings Limited 2000-07-27 2003-09-19 -93.48% -58.20% -53.37%
146 PIONEER GLOBAL GROUP LIMITED 2000-08-10 2001-07-19 -59.83% -62.14% -47.10%
147 Central Wealth Group Holdings Limited 2000-08-21 2005-07-26 -82.93% -30.14% -29.99%
148 Sunwah Kingsway Capital Holdings Limited 2000-08-29 2010-09-16 -3.94% -0.40% -6.31%
149 Jiande International Holdings Limited 2000-12-20 2010-09-21 -76.86% -15.15% -21.39%
150 VALUE CONVERGENCE HOLDINGS LIMITED 2001-03-23 2001-12-18 -22.97% -31.40% -27.18%
151 Hi Sun Technology (China) Limited 2001-03-30 1,581.22% 16.43% 8.26%
152 ENN Energy Holdings Limited 2001-04-04 7,749.07% 26.69% 18.19%
153 Towngas China Company Limited 2001-04-10 2011-03-14 468.75% 19.20% 9.20%
154 Y. T. REALTY GROUP LIMITED 2001-04-11 3,132.23% 20.65% 12.14%
155 ENM Holdings Limited 2001-04-12 2005-04-15 -34.07% -9.87% -13.85%
156 Oshidori International Holdings Limited 2001-04-20 2017-03-28 -89.61% -13.24% -19.07%
157 Silk Road Logistics Holdings Limited 2001-04-20 2002-05-17 246.15% 218.03% 242.08%
158 Bison Finance Group Limited 2001-06-19 2002-03-08 -16.98% -23.56% -8.71%
159 State Energy Group International Assets Holdings Limited 2001-07-24 2017-06-28 30.12% 1.67% -6.09%
160 Sinofortune Financial Holdings Limited 2002-01-08 2002-03-22 -30.99%
161 China Resources Gas Group Limited 2002-03-25 2006-04-11 26.61% 6.00% -7.59%
162 Loto Interactive Limited 2002-05-10 2007-03-27 -56.90% -15.90% -26.62%
163 CHANGCHUN DA XING PHARMACEUTICAL COMPANY LIMITED 2002-06-21 2008-10-15 -70.23% -32.53% -41.52%
164 CK LIFE SCIENCES INT'L., (HOLDINGS) INC. 2002-07-04 -79.99% -8.90% -16.53%
165 LAUNCH TECH COMPANY LIMITED 2002-09-30 2013-03-22 65.62% 4.94% -6.78%
166 Zhejiang Yongan Rongtong Holdings Co., Ltd. 2002-10-31 2003-03-27 -16.61%
167 CHINASOFT INTERNATIONAL LIMITED 2003-06-10 2004-03-26 71.43% 102.00% 45.44%
168 Shenzhen Investment Holdings Bay Area Development Company Limited (KY) 2003-07-28 281.84% 8.62% -1.06%
169 Shenzhen Investment Holdings Bay Area Development Company Limited (KY) 2003-07-28 108.84% 11.15% 4.18%
170 Tou Rong Chang Fu Group Limited 2003-07-28 2007-07-20 176.58% 29.14% 1.60%
171 EVOC Intelligent Technology Company Limited 2003-09-30 2004-03-24 -15.79%
172 HNA Technology Investments Holdings Limited 2003-10-31 2004-03-15 -25.54%
173 CITIC RESOURCES HOLDINGS LIMITED 2004-04-15 2008-04-18 119.53% 21.67% 0.17%
174 TOM GROUP LIMITED 2004-06-29 2005-03-23 -6.25% -8.45% -23.77%
175 SHENZHEN MINGWAH AOHAN HIGH TECHNOLOGY CORPORATION LIMITED 2004-06-30 2005-03-21 -1.64% -2.32% -19.45%
176 Munsun Capital Group Limited 2004-09-28 2005-04-07 -8.13%
177 CHINA SHINEWAY PHARMACEUTICAL GROUP LIMITED 2004-11-23 155.33% 6.50% -1.16%
178 XINYI GLASS HOLDINGS LIMITED 2005-01-24 2005-04-22 3.75%
179 China Nonferrous Metals Company Limited 2005-02-21 2005-03-29 -3.03%
180 GST Holdings Limited 2005-06-20 2009-12-18 146.52% 24.34% 10.56%
181 CIMC Enric Holdings Limited 2005-10-10 162.63% 7.14% -0.63%
182 LAI FUNG HOLDINGS LIMITED 2005-11-18 2012-10-30 -6.94% -1.03% -8.99%
183 LVGEM (China) Real Estate Investment Company Limited 2005-11-22 2007-03-30 -26.54% -20.80% -36.71%
184 China Flavors and Fragrances Company Limited 2005-11-30 2006-04-03 143.70%
185 C C Land Holdings Limited 2006-04-07 2014-03-25 -49.56% -8.24% -14.11%
186 Planetree International Development Limited 2006-04-07 81.64% 4.51% -2.43%
187 Sunlight Real Estate Investment Trust 2006-12-08 454.68% 14.29% 7.83%
188 Meadville Holdings (BVI) Limited 2007-01-22 2010-04-19 46.14% 12.63% 6.73%
189 Country Garden Holdings Company Limited 2007-04-03 2015-03-11 -47.35% -7.81% -12.30%
190 Tianjin Port Development Holdings Limited 2007-04-18 -73.89% -10.19% -14.80%
191 Good Friend International Holdings Inc. 2007-04-20 -54.65% -6.13% -11.07%
192 Jiahua Stores Holdings Limited 2007-05-08 -68.32% -8.85% -13.44%
193 AUTOMATED SYSTEMS HOLDINGS LIMITED 2007-06-21 2014-03-28 -34.43% -6.05% -8.86%
194 China Automation Group Limited 2007-06-28 -39.04% -3.96% -7.93%
195 New World Department Store China Limited 2007-10-10 -75.95% -11.18% -13.59%
196 Kingsoft Corporation Limited 2008-03-31 2012-03-27 95.60% 18.32% 16.96%
197 CHINA TRAVEL INTERNATIONAL INVESTMENT HONG KONG LIMITED 2008-04-08 2009-04-06 -51.91% -52.13% -25.79%
198 Huan Yue Interactive Holdings Limited 2008-04-17 2018-03-28 -39.34% -4.90% -9.89%
199 Link Real Estate Investment Trust 2008-06-06 2009-06-17 -6.00% -5.83% 21.00%
200 China Kangda Food Company Limited 2008-11-28 2010-02-28 -31.18% -27.14% -46.68%
201 Public Financial Holdings Limited 2009-01-14 2016-01-14 61.54% 7.09% -1.41%
202 CROSS-HARBOUR (HOLDINGS) LIMITED (THE) 2009-03-27 190.25% 10.62% 0.82%
203 TSINGTAO BREWERY COMPANY LIMITED 2009-04-08 200.70% 11.02% 1.38%
204 Rykadan Capital Limited 2009-08-11 2010-07-09 -24.92% -27.76% -30.38%
205 Huayi Tencent Entertainment Company Limited 2010-03-31 2013-03-20 -64.25% -29.27% -32.42%
206 CHINA MERCHANTS CHINA DIRECT INVESTMENTS LIMITED 2010-04-12 -3.71% -0.40% -5.53%
207 Guangzhou Automobile Group Co., Ltd. 2010-06-18 2011-03-22 3.94% 7.15% -10.95%
208 Dorsett Hospitality International Limited 2010-09-28 4.17% 0.82% -1.23%
209 CHINA NEW TOWN DEVELOPMENT COMPANY LIMITED 2010-10-18 2011-03-10 -41.67%
210 EVERGREEN INTERNATIONAL HOLDINGS LIMITED 2010-10-22 2011-03-18 -34.66%
211 Power Assets Holdings Limited 2011-03-02 2015-02-24 77.37% 15.47% 9.73%
212 PAX Global Technology Limited 2011-03-17 48.57% 4.72% -0.91%
213 CHINA TAIPING INSURANCE HOLDINGS COMPANY LIMITED 2011-03-21 2015-03-26 28.87% 6.52% 1.09%
214 Hui Xian Real Estate Investment Trust 2011-04-11 25.01% 2.67% -2.21%
215 Rykadan Capital Limited 2011-06-28 -31.11% -4.39% -9.61%
216 CHEUK NANG (HOLDINGS) LIMITED 2011-09-22 64.81% 6.39% -2.02%
217 LAI SUN GARMENT (INTERNATIONAL) LIMITED 2011-10-30 2012-10-30 30.56% 30.58% 17.14%
218 SITOY GROUP HOLDINGS LIMITED 2011-11-24 -27.35% -3.98% -11.13%
219 PC Partner Group Limited 2011-12-29 2016-03-30 -42.03% -12.14% -16.65%
220 CHINA NEW TOWN DEVELOPMENT COMPANY LIMITED 2012-03-08 2015-03-11 -13.41% -4.68% -11.62%
221 Viva China Holdings Limited 2012-03-15 2019-03-22 4.27% 0.60% -6.87%
222 ASIA ALLIED INFRASTRUCTURE HOLDINGS LIMITED 2013-06-25 2014-06-24 -4.18% -4.19% -19.25%
223 International Housewares Retail Company Limited 2013-09-12 -8.98% -1.54% -7.02%
224 Yestar Healthcare Holdings Company Limited 2013-09-27 2014-03-10 100.63%
225 New Ray Medicine International Holding Limited 2013-10-18 2014-03-18 3.91%
226 HK Electric Investments Limited 2014-01-16 2015-02-10 6.05% 5.86% -7.68%
227 Perfect Optronics Limited 2014-01-24 2014-03-24 110.17%
228 Rosan Resources Holdings Limited 2014-03-26 2015-03-29 -16.21% -16.18% -27.67%
229 Powerleader Science & Technology Group Limited 2014-03-28 -60.29% -15.31% -21.04%
230 TOMSON GROUP LIMITED 2014-03-28 35.87% 5.67% -1.48%
231 Vestate Group Holdings Limited 2014-06-20 2016-06-30 325.71% 104.22% 108.27%
232 Fortune Real Estate Investment Trust 2015-03-09 37.42% 7.14% 1.16%
233 AAC TECHNOLOGIES HOLDINGS INC. 2015-03-25 5.85% 1.25% -4.02%
234 ALLIED PROPERTIES (H.K.) LIMITED 2015-03-26 30.02% 5.92% 0.35%
235 Forgame Holdings Limited 2015-03-26 -72.47% -24.62% -28.58%
236 CK Asset Holdings Limited 2015-05-08 -18.57% -4.59% -7.23%
237 Huayi Tencent Entertainment Company Limited 2016-03-11 2017-03-24 -59.60% -58.34% -66.33%
238 FOUNTAIN SET (HOLDINGS) LIMITED 2016-03-18 2017-03-23 39.11% 38.52% 14.32%
239 AUTOMATED SYSTEMS HOLDINGS LIMITED 2016-03-23 3.41% 0.94% -9.46%
240 Xiwang Property Holdings Company Limited 2016-03-23 -26.57% -8.29% -17.74%
241 Pokfulam Development Company Limited 2016-11-11 13.86% 4.53% -4.73%
242 Denox Environmental & Technology Holdings Limited 2017-03-24 -69.00% -36.62% -41.08%
243 Kiddieland International Limited 2017-09-11 2018-07-18 -64.10% -71.27% -72.15%
244 Country Garden Holdings Company Limited 2018-03-20 -21.47% -14.19% -8.50%
245 Huayi Tencent Entertainment Company Limited 2018-03-26 -74.40% -58.17% -56.27%
246 Tsaker Chemical Group Limited 2018-03-28 -52.77% -38.22% -36.14%
247 Country Garden Services Holdings Company Limited 2019-03-19 105.20% 243.01% 286.66%
Average 1.10% -1.25%


Sign up for our free newsletter

Recommend Webb-site to a friend

Copyright & disclaimer, Privacy policy

Back to top